Time;durP1;ratioP1;P1;durP2;ratioP2;P2;SDS_P1;SDS_P2;PMS_P1;PMS_P2;Temp;Humidity;BMP_temperature;BMP_pressure;BME280_temperature;BME280_humidity;BME280_pressure;Samples;Min_cycle;Max_cycle;Signal;HPM_P1;HPM_P2
2024/02/27 00:02:23;;;;;;;17.83;10.70;;;;;;;;;;5081540;28;20083;-71
2024/02/27 00:04:50;;;;;;;19.08;11.20;;;;;;;;;;5081266;28;20056;-71
2024/02/27 00:07:16;;;;;;;19.20;11.30;;;;;;;;;;5061909;28;20060;-72
2024/02/27 00:09:44;;;;;;;21.55;11.32;;;;;;;;;;5069126;28;20153;-70
2024/02/27 00:12:10;;;;;;;19.10;11.45;;;;;;;;;;5072245;28;20083;-72
2024/02/27 00:14:37;;;;;;;19.33;10.15;;;;;;;;;;5049912;28;20055;-73
2024/02/27 00:17:04;;;;;;;19.63;11.48;;;;;;;;;;5064724;28;20528;-72
2024/02/27 00:19:31;;;;;;;18.25;10.18;;;;;;;;;;5069114;28;20048;-71
2024/02/27 00:21:57;;;;;;;20.38;11.73;;;;;;;;;;5056070;28;20136;-71
2024/02/27 00:24:23;;;;;;;19.67;11.68;;;;;;;;;;5081367;28;20107;-73
2024/02/27 00:26:50;;;;;;;17.02;9.77;;;;;;;;;;5081106;28;20059;-72
2024/02/27 00:29:20;;;;;;;19.50;11.55;;;;;;;;;;5044440;28;20080;-71
2024/02/27 00:31:46;;;;;;;18.95;11.35;;;;;;;;;;5081082;28;20049;-71
2024/02/27 00:34:14;;;;;;;16.85;10.40;;;;;;;;;;5065804;28;20048;-71
2024/02/27 00:36:40;;;;;;;20.38;11.25;;;;;;;;;;5066330;28;20654;-70
2024/02/27 00:39:07;;;;;;;18.77;11.15;;;;;;;;;;5092776;28;20123;-70
2024/02/27 00:41:40;;;;;;;18.58;11.07;;;;;;;;;;5067283;28;20049;-71
2024/02/27 00:44:07;;;;;;;17.65;10.90;;;;;;;;;;5069194;28;20072;-71
2024/02/27 00:46:34;;;;;;;17.45;10.02;;;;;;;;;;5055530;28;20499;-71
2024/02/27 00:49:00;;;;;;;17.77;10.90;;;;;;;;;;5078612;28;20053;-71
2024/02/27 00:51:27;;;;;;;18.92;10.57;;;;;;;;;;5077438;28;20046;-71
2024/02/27 00:53:53;;;;;;;19.25;11.32;;;;;;;;;;5052779;28;20131;-72
2024/02/27 00:56:20;;;;;;;18.75;10.80;;;;;;;;;;5066486;28;20264;-71
2024/02/27 00:58:46;;;;;;;20.42;11.50;;;;;;;;;;5073625;28;20044;-71
2024/02/27 01:01:13;;;;;;;22.70;12.30;;;;;;;;;;5064584;28;20650;-72
2024/02/27 01:03:39;;;;;;;19.63;12.52;;;;;;;;;;5075378;28;20071;-72
2024/02/27 01:06:07;;;;;;;18.52;11.32;;;;;;;;;;5088773;28;20474;-73
2024/02/27 01:08:34;;;;;;;21.45;11.70;;;;;;;;;;5070705;28;20468;-72
2024/02/27 01:11:00;;;;;;;19.48;11.13;;;;;;;;;;5078908;28;20135;-70
2024/02/27 01:13:27;;;;;;;17.35;11.02;;;;;;;;;;5072163;28;20052;-70
2024/02/27 01:15:53;;;;;;;20.00;11.00;;;;;;;;;;5058585;28;20044;-71
2024/02/27 01:18:19;;;;;;;18.80;11.90;;;;;;;;;;5070294;28;20223;-70
2024/02/27 01:20:46;;;;;;;18.75;11.32;;;;;;;;;;5069325;28;20114;-73
2024/02/27 01:23:12;;;;;;;19.98;11.13;;;;;;;;;;5080566;28;20167;-71
2024/02/27 01:25:39;;;;;;;20.67;12.38;;;;;;;;;;5055773;28;20075;-71
2024/02/27 01:28:06;;;;;;;17.40;10.55;;;;;;;;;;5082985;28;20109;-71
2024/02/27 01:30:32;;;;;;;20.08;10.27;;;;;;;;;;5075174;28;20044;-71
2024/02/27 01:32:59;;;;;;;17.92;11.27;;;;;;;;;;5073984;28;20727;-71
2024/02/27 01:35:25;;;;;;;17.85;11.27;;;;;;;;;;5080469;28;20075;-71
2024/02/27 01:37:52;;;;;;;23.52;11.45;;;;;;;;;;5063970;28;20048;-71
2024/02/27 01:40:18;;;;;;;22.10;11.68;;;;;;;;;;5051799;28;20072;-71
2024/02/27 01:42:45;;;;;;;18.67;10.95;;;;;;;;;;5074590;28;20053;-71
2024/02/27 01:45:15;;;;;;;22.08;12.50;;;;;;;;;;5071384;28;20055;-71
2024/02/27 01:47:41;;;;;;;18.33;10.57;;;;;;;;;;5071040;28;20072;-71
2024/02/27 01:50:08;;;;;;;21.45;11.98;;;;;;;;;;5078396;28;20092;-72
2024/02/27 01:52:34;;;;;;;21.08;12.15;;;;;;;;;;5086842;28;20048;-73
2024/02/27 01:55:01;;;;;;;18.15;10.65;;;;;;;;;;5063113;28;20048;-72
2024/02/27 01:57:27;;;;;;;20.08;11.00;;;;;;;;;;5079089;28;20093;-71
2024/02/27 01:59:54;;;;;;;19.73;11.07;;;;;;;;;;5083449;28;20521;-74
2024/02/27 02:02:20;;;;;;;19.30;11.23;;;;;;;;;;5078414;28;20082;-74
2024/02/27 02:04:48;;;;;;;20.15;11.75;;;;;;;;;;5079003;28;20080;-74
2024/02/27 02:07:16;;;;;;;21.15;12.68;;;;;;;;;;5080117;28;20131;-76
2024/02/27 02:09:43;;;;;;;20.15;11.90;;;;;;;;;;5072777;28;20427;-76
2024/02/27 02:12:09;;;;;;;20.63;11.57;;;;;;;;;;5079847;28;20054;-75
2024/02/27 02:14:36;;;;;;;19.40;11.48;;;;;;;;;;5073396;28;20568;-76
2024/02/27 02:17:02;;;;;;;21.95;11.75;;;;;;;;;;5074088;28;20136;-76
2024/02/27 02:19:29;;;;;;;23.00;12.43;;;;;;;;;;5055958;28;21121;-76
2024/02/27 02:21:57;;;;;;;20.90;12.18;;;;;;;;;;5083736;28;20717;-75
2024/02/27 02:24:25;;;;;;;22.05;12.10;;;;;;;;;;5070764;28;20044;-76
2024/02/27 02:26:54;;;;;;;19.13;10.70;;;;;;;;;;5072782;28;20055;-76
2024/02/27 02:29:20;;;;;;;18.02;11.15;;;;;;;;;;5084085;28;20473;-75
2024/02/27 02:31:47;;;;;;;20.92;12.20;;;;;;;;;;5073681;28;20052;-74
2024/02/27 02:34:13;;;;;;;20.02;11.68;;;;;;;;;;5055574;28;20088;-75
2024/02/27 02:36:41;;;;;;;17.40;9.80;;;;;;;;;;5079820;28;20087;-74
2024/02/27 02:39:07;;;;;;;20.70;11.70;;;;;;;;;;5062576;28;20052;-75
2024/02/27 02:41:34;;;;;;;21.23;12.52;;;;;;;;;;5082525;28;20408;-76
2024/02/27 02:44:00;;;;;;;23.13;10.75;;;;;;;;;;5077880;28;20091;-74
2024/02/27 02:46:26;;;;;;;19.73;11.20;;;;;;;;;;5077103;28;20095;-75
2024/02/27 02:48:54;;;;;;;19.15;10.70;;;;;;;;;;5060055;28;20056;-74
2024/02/27 02:51:20;;;;;;;15.53;9.60;;;;;;;;;;5064213;28;20437;-75
2024/02/27 02:53:47;;;;;;;18.73;11.20;;;;;;;;;;5073516;28;20064;-75
2024/02/27 02:56:13;;;;;;;19.08;10.65;;;;;;;;;;5062421;28;20055;-75
2024/02/27 02:58:40;;;;;;;19.00;11.32;;;;;;;;;;5069206;28;20791;-75
2024/02/27 03:01:06;;;;;;;19.17;11.05;;;;;;;;;;5077441;28;20056;-75
2024/02/27 03:03:33;;;;;;;16.73;10.35;;;;;;;;;;5087343;28;20117;-74
2024/02/27 03:05:59;;;;;;;16.70;9.27;;;;;;;;;;5077575;28;20156;-74
2024/02/27 03:08:26;;;;;;;19.27;11.50;;;;;;;;;;5087653;28;20067;-75
2024/02/27 03:10:52;;;;;;;19.33;10.75;;;;;;;;;;5081064;28;20052;-70
2024/02/27 03:13:18;;;;;;;18.17;10.70;;;;;;;;;;5075682;28;20563;-70
2024/02/27 03:15:45;;;;;;;18.38;10.43;;;;;;;;;;5072754;28;20098;-71
2024/02/27 03:18:11;;;;;;;20.10;10.70;;;;;;;;;;5071563;28;20044;-70
2024/02/27 03:20:38;;;;;;;19.65;10.70;;;;;;;;;;5057403;28;20087;-71
2024/02/27 03:23:04;;;;;;;20.30;10.80;;;;;;;;;;5076085;28;20102;-71
2024/02/27 03:25:31;;;;;;;17.88;10.02;;;;;;;;;;5072247;28;20048;-71
2024/02/27 03:27:57;;;;;;;17.00;10.30;;;;;;;;;;5087083;28;20095;-71
2024/02/27 03:30:25;;;;;;;19.30;10.85;;;;;;;;;;5077675;28;20129;-71
2024/02/27 03:32:52;;;;;;;16.33;10.00;;;;;;;;;;5075951;28;20048;-71
2024/02/27 03:35:18;;;;;;;20.85;11.18;;;;;;;;;;5086845;28;20053;-71
2024/02/27 03:37:44;;;;;;;17.38;9.63;;;;;;;;;;5056674;28;20052;-71
2024/02/27 03:40:11;;;;;;;19.05;10.60;;;;;;;;;;5070860;28;20044;-73
2024/02/27 03:42:37;;;;;;;18.05;10.25;;;;;;;;;;5068184;28;20954;-70
2024/02/27 03:45:04;;;;;;;17.25;10.35;;;;;;;;;;5056725;28;20119;-71
2024/02/27 03:47:31;;;;;;;17.10;10.15;;;;;;;;;;5074053;28;20051;-70
2024/02/27 03:49:57;;;;;;;16.67;10.05;;;;;;;;;;5083110;28;20083;-71
2024/02/27 03:52:24;;;;;;;19.08;10.60;;;;;;;;;;5084399;28;20053;-71
2024/02/27 03:54:50;;;;;;;17.13;10.48;;;;;;;;;;5079438;28;20744;-71
2024/02/27 03:57:17;;;;;;;16.08;9.20;;;;;;;;;;5076650;28;20131;-71
2024/02/27 03:59:43;;;;;;;20.38;10.63;;;;;;;;;;5074126;28;20054;-71
2024/02/27 04:02:09;;;;;;;21.45;10.43;;;;;;;;;;5074347;28;20045;-71
2024/02/27 04:04:36;;;;;;;18.98;10.77;;;;;;;;;;5062018;28;20419;-70
2024/02/27 04:07:02;;;;;;;16.95;9.65;;;;;;;;;;5066136;28;20559;-70
2024/02/27 04:09:29;;;;;;;19.17;10.77;;;;;;;;;;5085064;28;20422;-70
2024/02/27 04:11:55;;;;;;;19.17;10.23;;;;;;;;;;5058134;28;20537;-71
2024/02/27 04:14:22;;;;;;;19.90;11.05;;;;;;;;;;5070216;28;20048;-70
2024/02/27 04:16:48;;;;;;;18.40;10.10;;;;;;;;;;5075598;28;20112;-71
2024/02/27 04:19:15;;;;;;;17.55;10.38;;;;;;;;;;5074767;28;20140;-71
2024/02/27 04:21:42;;;;;;;17.55;10.10;;;;;;;;;;5055392;28;20059;-71
2024/02/27 04:24:08;;;;;;;19.10;10.57;;;;;;;;;;5081455;28;20044;-71
2024/02/27 04:26:35;;;;;;;20.23;11.43;;;;;;;;;;5067777;28;20124;-71
2024/02/27 04:29:01;;;;;;;19.90;11.15;;;;;;;;;;5057630;28;20047;-71
2024/02/27 04:31:28;;;;;;;19.45;10.48;;;;;;;;;;5088716;28;20551;-72
2024/02/27 04:33:55;;;;;;;17.70;10.48;;;;;;;;;;5077843;28;20151;-71
2024/02/27 04:36:21;;;;;;;18.67;11.57;;;;;;;;;;5071440;28;20052;-72
2024/02/27 04:38:48;;;;;;;19.55;11.35;;;;;;;;;;5074423;28;20053;-70
2024/02/27 04:41:14;;;;;;;20.00;11.32;;;;;;;;;;5057735;28;20052;-70
2024/02/27 04:43:40;;;;;;;18.08;10.05;;;;;;;;;;5056702;28;20049;-70
2024/02/27 04:46:07;;;;;;;20.33;10.73;;;;;;;;;;5073789;28;20044;-70
2024/02/27 04:48:34;;;;;;;19.33;10.95;;;;;;;;;;5077015;28;20162;-72
2024/02/27 04:51:01;;;;;;;20.25;11.45;;;;;;;;;;5062610;28;20040;-70
2024/02/27 04:53:27;;;;;;;22.38;12.48;;;;;;;;;;5075078;28;20054;-70
2024/02/27 04:55:53;;;;;;;20.27;11.93;;;;;;;;;;5066835;28;20067;-71
2024/02/27 04:58:20;;;;;;;17.95;11.00;;;;;;;;;;5077698;28;20481;-70
2024/02/27 05:00:46;;;;;;;21.13;11.75;;;;;;;;;;5101345;28;20044;-71
2024/02/27 05:03:13;;;;;;;23.80;11.85;;;;;;;;;;5071709;28;20051;-70
2024/02/27 05:05:39;;;;;;;21.08;11.57;;;;;;;;;;5069680;28;20137;-71
2024/02/27 05:08:06;;;;;;;19.27;10.43;;;;;;;;;;5084526;28;20447;-71
2024/02/27 05:10:32;;;;;;;21.00;12.30;;;;;;;;;;5078503;28;20048;-70
2024/02/27 05:13:00;;;;;;;19.73;11.23;;;;;;;;;;5085694;28;20135;-70
2024/02/27 05:15:26;;;;;;;27.02;12.80;;;;;;;;;;5070976;28;20140;-71
2024/02/27 05:17:53;;;;;;;19.15;10.63;;;;;;;;;;5070108;28;20075;-71
2024/02/27 05:20:19;;;;;;;22.95;11.55;;;;;;;;;;5064414;28;20047;-70
2024/02/27 05:22:46;;;;;;;22.15;11.57;;;;;;;;;;5062607;28;20081;-71
2024/02/27 05:25:12;;;;;;;23.58;11.07;;;;;;;;;;5076397;28;20528;-71
2024/02/27 05:27:39;;;;;;;19.45;11.10;;;;;;;;;;5069687;28;20443;-70
2024/02/27 05:30:06;;;;;;;21.80;11.93;;;;;;;;;;5069211;28;20083;-71
2024/02/27 05:32:34;;;;;;;20.48;11.68;;;;;;;;;;5068721;28;20044;-71
2024/02/27 05:35:00;;;;;;;19.20;10.88;;;;;;;;;;5082458;28;20064;-71
2024/02/27 05:37:26;;;;;;;21.25;11.35;;;;;;;;;;5068073;28;20374;-71
2024/02/27 05:39:53;;;;;;;21.02;11.60;;;;;;;;;;5055709;28;20051;-72
2024/02/27 05:42:19;;;;;;;19.42;11.35;;;;;;;;;;5055442;28;20098;-71
2024/02/27 05:44:46;;;;;;;20.67;10.57;;;;;;;;;;5060878;28;20210;-70
2024/02/27 05:47:12;;;;;;;20.90;11.00;;;;;;;;;;5067367;28;20671;-71
2024/02/27 05:49:38;;;;;;;18.35;10.40;;;;;;;;;;5080955;28;20093;-71
2024/02/27 05:52:05;;;;;;;21.50;11.68;;;;;;;;;;5079770;28;20684;-71
2024/02/27 05:54:31;;;;;;;18.88;11.13;;;;;;;;;;5082870;28;20059;-71
2024/02/27 05:56:58;;;;;;;20.80;11.82;;;;;;;;;;5075085;28;20052;-71
2024/02/27 05:59:24;;;;;;;19.70;11.10;;;;;;;;;;5065900;28;20055;-71
2024/02/27 06:01:50;;;;;;;20.20;10.73;;;;;;;;;;5061865;28;20144;-71
2024/02/27 06:04:17;;;;;;;24.25;12.35;;;;;;;;;;5086161;28;20048;-71
2024/02/27 06:06:43;;;;;;;20.25;11.30;;;;;;;;;;5078699;28;20053;-71
2024/02/27 06:09:10;;;;;;;18.73;10.30;;;;;;;;;;5068984;28;20044;-71
2024/02/27 06:11:37;;;;;;;21.73;11.07;;;;;;;;;;5087318;28;20036;-71
2024/02/27 06:14:03;;;;;;;21.00;10.93;;;;;;;;;;5060330;28;20056;-71
2024/02/27 06:16:29;;;;;;;19.42;10.70;;;;;;;;;;5071901;28;20472;-71
2024/02/27 06:18:56;;;;;;;21.67;11.18;;;;;;;;;;5079869;28;20729;-70
2024/02/27 06:24:08;;;;;;;20.70;11.25;;;;;;;;;;5077658;28;20429;-71
2024/02/27 06:26:34;;;;;;;19.80;11.57;;;;;;;;;;5073480;28;20686;-70
2024/02/27 06:29:01;;;;;;;21.45;12.23;;;;;;;;;;5056136;28;20810;-73
2024/02/27 06:31:27;;;;;;;21.25;11.48;;;;;;;;;;5080475;28;20048;-70
2024/02/27 06:33:53;;;;;;;21.50;12.05;;;;;;;;;;5067699;28;20052;-71
2024/02/27 06:36:22;;;;;;;19.33;10.68;;;;;;;;;;5082390;28;20052;-71
2024/02/27 06:38:48;;;;;;;16.90;10.18;;;;;;;;;;5064063;28;20545;-71
2024/02/27 06:41:15;;;;;;;20.30;11.05;;;;;;;;;;5074124;28;20152;-71
2024/02/27 06:43:41;;;;;;;21.48;11.70;;;;;;;;;;5067495;28;20705;-71
2024/02/27 06:46:08;;;;;;;19.40;10.88;;;;;;;;;;5070359;28;20045;-70
2024/02/27 06:48:34;;;;;;;22.90;12.45;;;;;;;;;;5075226;28;20520;-70
2024/02/27 06:51:06;;;;;;;20.35;10.23;;;;;;;;;;5082000;28;20080;-70
2024/02/27 06:53:33;;;;;;;21.27;11.20;;;;;;;;;;5074001;28;20167;-71
2024/02/27 06:55:59;;;;;;;17.98;10.60;;;;;;;;;;5042850;28;20053;-71
2024/02/27 06:58:26;;;;;;;20.48;10.85;;;;;;;;;;5071729;28;20040;-71
2024/02/27 07:00:52;;;;;;;19.13;10.35;;;;;;;;;;5057529;28;20044;-70
2024/02/27 07:03:19;;;;;;;18.00;9.13;;;;;;;;;;5064237;28;20488;-70
2024/02/27 07:05:45;;;;;;;19.08;10.50;;;;;;;;;;5080702;28;20052;-71
2024/02/27 07:08:19;;;;;;;22.17;11.70;;;;;;;;;;5064540;28;20048;-71
2024/02/27 07:10:45;;;;;;;18.02;10.45;;;;;;;;;;5082226;28;20135;-72
2024/02/27 07:13:12;;;;;;;19.80;10.93;;;;;;;;;;5075782;28;20056;-71
2024/02/27 07:15:40;;;;;;;17.48;10.02;;;;;;;;;;5062636;28;20053;-72
2024/02/27 07:18:06;;;;;;;16.87;10.00;;;;;;;;;;5084658;28;20058;-72
2024/02/27 07:20:33;;;;;;;19.02;10.18;;;;;;;;;;5072449;28;20100;-72
2024/02/27 07:23:01;;;;;;;18.75;10.63;;;;;;;;;;5075901;28;20105;-71
2024/02/27 07:25:28;;;;;;;20.83;11.32;;;;;;;;;;5073149;28;20102;-71
2024/02/27 07:27:54;;;;;;;20.25;10.55;;;;;;;;;;5049640;28;20171;-72
2024/02/27 07:30:21;;;;;;;21.52;10.77;;;;;;;;;;5078837;28;20481;-71
2024/02/27 07:32:47;;;;;;;19.35;10.48;;;;;;;;;;5066084;28;20066;-71
2024/02/27 07:35:14;;;;;;;18.65;10.20;;;;;;;;;;5062411;28;20048;-69
2024/02/27 07:37:40;;;;;;;18.55;10.15;;;;;;;;;;5077454;28;21020;-71
2024/02/27 07:40:07;;;;;;;18.02;10.32;;;;;;;;;;5066061;28;20105;-71
2024/02/27 07:42:33;;;;;;;17.50;10.82;;;;;;;;;;5069445;28;20040;-71
2024/02/27 07:45:00;;;;;;;19.33;9.00;;;;;;;;;;5084946;28;20045;-72
2024/02/27 07:47:26;;;;;;;16.17;9.68;;;;;;;;;;5072613;28;20089;-69
2024/02/27 07:49:53;;;;;;;17.00;10.48;;;;;;;;;;5070367;28;20546;-74
2024/02/27 07:52:21;;;;;;;19.47;9.43;;;;;;;;;;5084333;28;20080;-73
2024/02/27 07:54:47;;;;;;;19.70;9.07;;;;;;;;;;5061826;28;20140;-70
2024/02/27 07:57:13;;;;;;;19.67;10.80;;;;;;;;;;5073449;28;20048;-69
2024/02/27 07:59:40;;;;;;;18.25;10.25;;;;;;;;;;5071738;28;20040;-68
2024/02/27 08:02:06;;;;;;;15.40;8.88;;;;;;;;;;5062437;28;20695;-69
2024/02/27 08:04:32;;;;;;;15.50;8.98;;;;;;;;;;5079532;28;20075;-69
2024/02/27 08:06:59;;;;;;;19.48;10.90;;;;;;;;;;5066158;28;20053;-70
2024/02/27 08:09:26;;;;;;;16.73;9.18;;;;;;;;;;5070216;28;20483;-70
2024/02/27 08:11:52;;;;;;;18.52;10.02;;;;;;;;;;5081619;28;20079;-71
2024/02/27 08:14:19;;;;;;;21.75;10.90;;;;;;;;;;5077533;28;20519;-72
2024/02/27 08:16:45;;;;;;;17.20;10.05;;;;;;;;;;5061074;28;20047;-72
2024/02/27 08:19:12;;;;;;;17.88;10.63;;;;;;;;;;5060209;28;20131;-71
2024/02/27 08:21:38;;;;;;;18.25;9.55;;;;;;;;;;5080156;28;20118;-72
2024/02/27 08:24:08;;;;;;;17.08;10.23;;;;;;;;;;5066994;28;20388;-72
2024/02/27 08:26:35;;;;;;;17.73;9.85;;;;;;;;;;5087934;28;20143;-71
2024/02/27 08:29:01;;;;;;;17.98;9.70;;;;;;;;;;5076404;28;20412;-73
2024/02/27 08:31:27;;;;;;;16.02;9.57;;;;;;;;;;5068465;28;20044;-71
2024/02/27 08:33:56;;;;;;;17.33;9.43;;;;;;;;;;5088899;28;20480;-72
2024/02/27 08:36:25;;;;;;;;;;;;;;;;;;5054222;28;20040;-72
2024/02/27 08:38:51;;;;;;;18.60;10.35;;;;;;;;;;5065510;28;19930;-71
2024/02/27 08:41:20;;;;;;;22.63;10.48;;;;;;;;;;5088194;28;20101;-72
2024/02/27 08:43:47;;;;;;;15.98;9.05;;;;;;;;;;5084350;28;20059;-71
2024/02/27 08:46:15;;;;;;;17.85;9.95;;;;;;;;;;5078142;28;20056;-71
2024/02/27 08:48:41;;;;;;;17.15;9.43;;;;;;;;;;5063630;28;20059;-72
2024/02/27 08:51:08;;;;;;;17.55;10.00;;;;;;;;;;5067525;28;20537;-71
2024/02/27 08:53:35;;;;;;;17.35;10.63;;;;;;;;;;5072089;28;20066;-72
2024/02/27 08:56:01;;;;;;;17.27;9.68;;;;;;;;;;5074390;28;20110;-71
2024/02/27 08:58:27;;;;;;;18.20;10.18;;;;;;;;;;5072639;28;20056;-70
2024/02/27 09:00:54;;;;;;;22.45;11.40;;;;;;;;;;5057755;28;20071;-74
2024/02/27 09:03:20;;;;;;;18.45;10.45;;;;;;;;;;5088405;28;20075;-74
2024/02/27 09:05:47;;;;;;;18.95;10.82;;;;;;;;;;5073337;28;20059;-74
2024/02/27 09:08:14;;;;;;;20.08;10.85;;;;;;;;;;5076312;28;20052;-75
2024/02/27 09:10:43;;;;;;;16.23;9.85;;;;;;;;;;5078599;28;20052;-75
2024/02/27 09:13:09;;;;;;;;;;;;;;;;;;5076346;28;20052;-74
2024/02/27 09:15:35;;;;;;;18.73;10.82;;;;;;;;;;5072412;28;19969;-75
2024/02/27 09:18:03;;;;;;;19.00;10.48;;;;;;;;;;5078156;28;20043;-75
2024/02/27 09:20:31;;;;;;;18.92;10.75;;;;;;;;;;5071216;28;20465;-75
2024/02/27 09:23:00;;;;;;;20.67;10.73;;;;;;;;;;5073033;28;20052;-74
2024/02/27 09:25:27;;;;;;;16.73;10.70;;;;;;;;;;5068335;28;20127;-73
2024/02/27 09:27:53;;;;;;;18.20;10.52;;;;;;;;;;5072882;28;20044;-74
2024/02/27 09:30:20;;;;;;;16.70;10.48;;;;;;;;;;5062137;28;20358;-74
2024/02/27 09:32:46;;;;;;;15.65;9.20;;;;;;;;;;5080715;28;20051;-74
2024/02/27 09:35:12;;;;;;;16.05;9.63;;;;;;;;;;5067259;28;20064;-74
2024/02/27 09:37:39;;;;;;;17.63;10.45;;;;;;;;;;5073021;28;20040;-74
2024/02/27 09:40:08;;;;;;;16.48;9.52;;;;;;;;;;5081067;28;20549;-74
2024/02/27 09:42:36;;;;;;;20.17;10.75;;;;;;;;;;5069666;28;20048;-74
2024/02/27 09:45:04;;;;;;;17.73;10.32;;;;;;;;;;5078621;28;20075;-74
2024/02/27 09:47:31;;;;;;;16.07;10.33;;;;;;;;;;5055120;28;20860;-74
2024/02/27 09:49:58;;;;;;;19.50;11.25;;;;;;;;;;5072033;28;20840;-74
2024/02/27 09:52:25;;;;;;;18.00;10.77;;;;;;;;;;5076310;28;20055;-74
2024/02/27 09:54:52;;;;;;;17.70;10.50;;;;;;;;;;5075154;28;20554;-74
2024/02/27 09:57:18;;;;;;;18.55;11.00;;;;;;;;;;5083895;28;20134;-74
2024/02/27 09:59:47;;;;;;;16.38;9.60;;;;;;;;;;5081484;28;20070;-74
2024/02/27 10:02:15;;;;;;;17.27;11.05;;;;;;;;;;5080195;28;20063;-74
2024/02/27 10:04:42;;;;;;;19.20;10.15;;;;;;;;;;5054583;28;20515;-74
2024/02/27 10:07:10;;;;;;;15.98;9.73;;;;;;;;;;5079927;28;20478;-73
2024/02/27 10:09:44;;;;;;;17.50;10.13;;;;;;;;;;5092826;28;20063;-74
2024/02/27 10:12:11;;;;;;;18.05;8.73;;;;;;;;;;5064787;28;20060;-74
2024/02/27 10:14:38;;;;;;;14.18;9.73;;;;;;;;;;5068974;28;20123;-74
2024/02/27 10:17:06;;;;;;;16.17;9.93;;;;;;;;;;5074586;28;20136;-74
2024/02/27 10:19:33;;;;;;;14.82;9.23;;;;;;;;;;5083567;28;20048;-75
2024/02/27 10:22:01;;;;;;;16.92;9.88;;;;;;;;;;5068811;28;20036;-75
2024/02/27 10:24:28;;;;;;;19.77;12.07;;;;;;;;;;5073828;28;20602;-75
2024/02/27 10:26:55;;;;;;;16.38;10.40;;;;;;;;;;5084515;28;20052;-74
2024/02/27 10:29:25;;;;;;;16.38;10.63;;;;;;;;;;5076206;28;20512;-75
2024/02/27 10:31:52;;;;;;;18.70;10.88;;;;;;;;;;5078745;28;20522;-74
2024/02/27 10:34:19;;;;;;;16.60;10.27;;;;;;;;;;5057412;28;20056;-75
2024/02/27 10:37:02;;;;;;;15.90;10.35;;;;;;;;;;5086379;28;20124;-75
2024/02/27 10:39:32;;;;;;;20.08;13.07;;;;;;;;;;5072692;28;20071;-74
2024/02/27 10:41:59;;;;;;;20.92;12.85;;;;;;;;;;5076492;28;20441;-75
2024/02/27 10:44:26;;;;;;;21.77;12.50;;;;;;;;;;5066488;28;20044;-74
2024/02/27 10:46:57;;;;;;;18.52;11.38;;;;;;;;;;5049284;28;20133;-74
2024/02/27 10:49:24;;;;;;;17.00;11.70;;;;;;;;;;5079116;28;20054;-74
2024/02/27 10:51:51;;;;;;;19.92;11.52;;;;;;;;;;5052105;28;20044;-74
2024/02/27 10:54:18;;;;;;;17.20;11.27;;;;;;;;;;5051772;28;20052;-74
2024/02/27 10:56:46;;;;;;;19.13;11.63;;;;;;;;;;5067619;28;20124;-73
2024/02/27 10:59:13;;;;;;;15.73;10.75;;;;;;;;;;5070522;28;20039;-74
2024/02/27 11:01:42;;;;;;;17.30;10.93;;;;;;;;;;5083273;28;20121;-74
2024/02/27 11:04:22;;;;;;;18.00;10.93;;;;;;;;;;5074093;28;20040;-75
2024/02/27 11:06:49;;;;;;;16.50;10.23;;;;;;;;;;5079604;28;20071;-76
2024/02/27 11:09:20;;;;;;;15.23;9.82;;;;;;;;;;5074286;28;20044;-76
2024/02/27 11:11:49;;;;;;;18.38;10.63;;;;;;;;;;5081875;28;20040;-76
2024/02/27 11:14:18;;;;;;;18.77;11.90;;;;;;;;;;5067229;28;20041;-75
2024/02/27 11:16:46;;;;;;;18.75;11.77;;;;;;;;;;5057111;28;20087;-75
2024/02/27 11:19:22;;;;;;;19.88;11.38;;;;;;;;;;5078646;28;20068;-76
2024/02/27 11:21:49;;;;;;;17.73;11.10;;;;;;;;;;5067501;28;20171;-72
2024/02/27 11:24:16;;;;;;;18.10;11.90;;;;;;;;;;5070329;28;20060;-73
2024/02/27 11:26:43;;;;;;;19.33;11.43;;;;;;;;;;5075676;28;20059;-74
2024/02/27 11:29:11;;;;;;;17.17;12.10;;;;;;;;;;5069282;28;20764;-73
2024/02/27 11:31:38;;;;;;;18.05;12.20;;;;;;;;;;5090381;28;20556;-73
2024/02/27 11:34:06;;;;;;;18.20;11.98;;;;;;;;;;5075003;28;20053;-73
2024/02/27 11:36:33;;;;;;;20.70;11.82;;;;;;;;;;5077316;28;20040;-73
2024/02/27 11:38:59;;;;;;;19.27;12.40;;;;;;;;;;5079417;28;20101;-72
2024/02/27 11:41:26;;;;;;;16.98;11.32;;;;;;;;;;5075082;28;20516;-73
2024/02/27 11:43:55;;;;;;;18.38;11.80;;;;;;;;;;5075700;28;20664;-72
2024/02/27 11:46:31;;;;;;;17.15;11.43;;;;;;;;;;5081668;28;20136;-72
2024/02/27 11:48:58;;;;;;;17.60;11.90;;;;;;;;;;5065311;28;20135;-73
2024/02/27 11:51:25;;;;;;;17.48;12.38;;;;;;;;;;5054948;28;20044;-72
2024/02/27 11:53:53;;;;;;;18.25;12.95;;;;;;;;;;5079431;28;20412;-72
2024/02/27 11:56:21;;;;;;;17.88;11.93;;;;;;;;;;5065745;28;22214;-74
2024/02/27 11:58:48;;;;;;;17.05;11.73;;;;;;;;;;5070572;28;20238;-73
2024/02/27 12:01:16;;;;;;;14.90;10.82;;;;;;;;;;5088545;27;20106;-72
2024/02/27 12:03:46;;;;;;;16.13;10.27;;;;;;;;;;5067475;28;20180;-73
2024/02/27 12:06:13;;;;;;;18.80;12.15;;;;;;;;;;5081925;28;20090;-72
2024/02/27 12:08:46;;;;;;;20.90;12.07;;;;;;;;;;5078727;28;20048;-73
2024/02/27 12:11:14;;;;;;;17.98;11.93;;;;;;;;;;5076870;28;20047;-72
2024/02/27 12:13:40;;;;;;;20.38;11.90;;;;;;;;;;5060396;28;20044;-72
2024/02/27 12:16:07;;;;;;;16.05;10.95;;;;;;;;;;5065365;28;20048;-72
2024/02/27 12:18:33;;;;;;;15.73;11.00;;;;;;;;;;5070335;28;20504;-71
2024/02/27 12:21:01;;;;;;;17.15;11.52;;;;;;;;;;5072383;28;20454;-69
2024/02/27 12:23:29;;;;;;;14.93;10.68;;;;;;;;;;5081594;28;20040;-72
2024/02/27 12:25:56;;;;;;;16.70;11.70;;;;;;;;;;5073817;28;20536;-70
2024/02/27 12:28:23;;;;;;;18.23;12.27;;;;;;;;;;5064643;28;20122;-73
2024/02/27 12:30:52;;;;;;;18.38;10.68;;;;;;;;;;5073013;28;20041;-74
2024/02/27 12:33:20;;;;;;;17.05;11.23;;;;;;;;;;5078808;28;20063;-75
2024/02/27 12:35:46;;;;;;;18.75;12.38;;;;;;;;;;5064003;28;20460;-74
2024/02/27 12:38:13;;;;;;;16.95;12.38;;;;;;;;;;5083596;28;20067;-74
2024/02/27 12:40:40;;;;;;;17.75;12.45;;;;;;;;;;5081805;28;20039;-75
2024/02/27 12:43:06;;;;;;;19.58;11.95;;;;;;;;;;5082066;28;20055;-74
2024/02/27 12:45:33;;;;;;;14.85;11.07;;;;;;;;;;5060432;28;20053;-74
2024/02/27 12:48:00;;;;;;;17.42;11.57;;;;;;;;;;5050608;28;20044;-74
2024/02/27 12:50:27;;;;;;;16.92;12.00;;;;;;;;;;5083576;28;20045;-74
2024/02/27 12:52:56;;;;;;;14.30;10.52;;;;;;;;;;5087781;28;20044;-74
2024/02/27 12:55:36;;;;;;;17.83;12.35;;;;;;;;;;5058842;28;20596;-74
2024/02/27 12:58:03;;;;;;;19.20;12.43;;;;;;;;;;5083253;28;20055;-74
2024/02/27 13:00:30;;;;;;;20.13;13.07;;;;;;;;;;5096728;28;20534;-74
2024/02/27 13:02:57;;;;;;;16.65;10.45;;;;;;;;;;5070617;28;20630;-74
2024/02/27 13:05:23;;;;;;;18.10;12.93;;;;;;;;;;5080902;28;20087;-74
2024/02/27 13:07:50;;;;;;;18.30;12.50;;;;;;;;;;5064726;28;20060;-74
2024/02/27 13:10:18;;;;;;;18.10;12.40;;;;;;;;;;5074284;28;20044;-74
2024/02/27 13:12:44;;;;;;;17.55;12.30;;;;;;;;;;5068227;28;20156;-74
2024/02/27 13:15:11;;;;;;;18.55;13.43;;;;;;;;;;5068228;28;20067;-74
2024/02/27 13:17:37;;;;;;;18.13;12.15;;;;;;;;;;5079626;28;20092;-74
2024/02/27 13:20:04;;;;;;;17.85;12.10;;;;;;;;;;5071814;28;20059;-74
2024/02/27 13:22:30;;;;;;;19.25;13.90;;;;;;;;;;5068601;28;20111;-74
2024/02/27 13:24:57;;;;;;;15.50;11.73;;;;;;;;;;5064567;28;20618;-74
2024/02/27 13:27:23;;;;;;;20.60;13.52;;;;;;;;;;5067482;28;20705;-74
2024/02/27 13:29:50;;;;;;;17.60;12.48;;;;;;;;;;5085745;28;20048;-74
2024/02/27 13:32:16;;;;;;;19.05;12.95;;;;;;;;;;5079977;28;20048;-74
2024/02/27 13:34:43;;;;;;;17.00;12.10;;;;;;;;;;5067390;28;20143;-74
2024/02/27 13:37:13;;;;;;;18.15;12.82;;;;;;;;;;5071578;28;20079;-74
2024/02/27 13:39:40;;;;;;;17.60;12.35;;;;;;;;;;5068479;28;20040;-72
2024/02/27 13:42:06;;;;;;;19.15;12.93;;;;;;;;;;5072982;28;20052;-71
2024/02/27 13:44:33;;;;;;;20.23;13.38;;;;;;;;;;5087848;28;20047;-71
2024/02/27 13:47:00;;;;;;;18.42;13.50;;;;;;;;;;5090750;28;20048;-71
2024/02/27 13:49:26;;;;;;;17.77;12.65;;;;;;;;;;5073902;28;20439;-72
2024/02/27 13:51:53;;;;;;;18.40;12.15;;;;;;;;;;5077584;28;20393;-72
2024/02/27 13:54:19;;;;;;;14.90;10.90;;;;;;;;;;5063301;28;20056;-71
2024/02/27 13:56:46;;;;;;;16.95;12.07;;;;;;;;;;5106427;27;20083;-71
2024/02/27 13:59:12;;;;;;;16.10;12.27;;;;;;;;;;5080090;28;20044;-72
2024/02/27 14:01:39;;;;;;;18.15;13.13;;;;;;;;;;5074171;28;20080;-72
2024/02/27 14:04:05;;;;;;;16.92;12.57;;;;;;;;;;5074339;28;20056;-73
2024/02/27 14:06:32;;;;;;;16.73;11.80;;;;;;;;;;5073079;28;20043;-72
2024/02/27 14:08:58;;;;;;;16.98;12.68;;;;;;;;;;5067024;28;20076;-71
2024/02/27 14:11:25;;;;;;;17.08;11.52;;;;;;;;;;5072528;28;20052;-72
2024/02/27 14:13:51;;;;;;;15.77;11.75;;;;;;;;;;5069138;28;20058;-72
2024/02/27 14:16:26;;;;;;;17.92;12.32;;;;;;;;;;5069517;28;20048;-72
2024/02/27 14:18:53;;;;;;;15.20;11.05;;;;;;;;;;5076668;28;20159;-71
2024/02/27 14:21:20;;;;;;;16.15;11.32;;;;;;;;;;5072533;28;20255;-72